Laguna Vista, Texas
Current Conditions -  °F | °C
As of 12:53 PM on Monday 22 Dec 2014 (Local Time) from KPIL Reporting Station
Haze Haze  
Wind Chill: 76°   Ceiling: Unl
Heat Index: 76°   Visibility: 6mi
Dew Point: 63°   Wind: 17mph
Humidity: 64%   Direction: 210°SSW
Pressure: 29.72"   Gusts: 29mph
Location:  26.0776°N, 97.3389°W
Report Text: KPIL 221853Z AUTO 21015G25KT 6SM HZ CLR 24/17 A2972 RMK AO2 SLP062 T02440172
Loading
Personal Weather Stations






























Interactive Weather Map New forecast layout! Learn more

10-Day Weather Forecast

Advertisements
Track Severe Weather on mobile